createdAt,value
2018-09-04T00:00:04.318Z,42.30
2018-09-04T00:02:08.987Z,38.07
2018-09-04T00:04:13.677Z,39.10
2018-09-04T00:06:18.365Z,37.77
2018-09-04T00:08:23.044Z,42.17
2018-09-04T00:10:27.974Z,42.03
2018-09-04T00:12:32.666Z,43.30
2018-09-04T00:14:37.421Z,40.00
2018-09-04T00:16:42.195Z,42.73
2018-09-04T00:18:46.906Z,43.97
2018-09-04T00:20:51.839Z,42.17
2018-09-04T00:22:56.457Z,42.73
2018-09-04T00:25:02.369Z,41.13
2018-09-04T00:27:07.060Z,40.37
2018-09-04T00:29:11.767Z,45.10
2018-09-04T00:31:22.520Z,43.53
2018-09-04T00:33:27.172Z,45.67
2018-09-04T00:35:31.835Z,38.73
2018-09-04T00:37:36.479Z,45.17
2018-09-04T00:39:41.166Z,48.93
2018-09-04T00:41:45.860Z,39.40
2018-09-04T00:43:50.492Z,35.73
2018-09-04T00:45:55.177Z,42.13
2018-09-04T00:47:59.876Z,48.13
2018-09-04T00:50:04.665Z,41.90
2018-09-04T00:52:09.406Z,42.27
2018-09-04T00:54:14.067Z,54.27
2018-09-04T00:56:18.783Z,50.47
2018-09-04T00:58:23.454Z,50.13
2018-09-04T01:00:28.642Z,45.13
2018-09-04T01:02:33.309Z,47.33
2018-09-04T01:04:38.101Z,50.03
2018-09-04T01:06:42.777Z,51.10
2018-09-04T01:08:48.126Z,54.30
2018-09-04T01:10:52.889Z,49.60
2018-09-04T01:12:57.653Z,54.73
2018-09-04T01:15:02.508Z,53.87
2018-09-04T01:17:07.649Z,58.93
2018-09-04T01:19:12.454Z,51.20
2018-09-04T01:21:17.167Z,60.63
2018-09-04T01:23:21.846Z,53.80
2018-09-04T01:25:26.586Z,51.70
2018-09-04T01:27:31.301Z,48.90
2018-09-04T01:29:35.932Z,43.50
2018-09-04T01:31:40.685Z,48.83
2018-09-04T01:33:45.330Z,50.43
2018-09-04T01:35:50.025Z,53.37
2018-09-04T01:37:54.698Z,50.23
2018-09-04T01:39:59.406Z,49.83
2018-09-04T01:42:04.103Z,45.27
2018-09-04T01:44:08.850Z,49.40
2018-09-04T01:46:13.722Z,47.77
2018-09-04T01:48:18.484Z,42.57
2018-09-04T01:50:23.325Z,58.50
2018-09-04T01:52:28.031Z,45.13
2018-09-04T01:54:32.815Z,44.80
2018-09-04T01:56:37.446Z,63.40
2018-09-04T01:58:42.217Z,51.93
2018-09-04T02:00:46.925Z,48.07
2018-09-04T02:02:51.759Z,43.73
2018-09-04T02:04:56.423Z,50.13
2018-09-04T02:07:01.124Z,68.10
2018-09-04T02:09:07.038Z,51.33
2018-09-04T02:11:11.881Z,45.87
2018-09-04T02:13:16.706Z,51.60
2018-09-04T02:15:21.471Z,53.53
2018-09-04T02:17:26.288Z,54.03
2018-09-04T02:19:31.002Z,54.70
2018-09-04T02:21:35.724Z,51.40
2018-09-04T02:23:40.493Z,49.03
2018-09-04T02:25:45.195Z,50.27
2018-09-04T02:27:49.848Z,54.47
2018-09-04T02:29:54.545Z,53.47
2018-09-04T02:31:59.205Z,48.70
2018-09-04T02:34:03.917Z,57.87
2018-09-04T02:36:08.581Z,45.27
2018-09-04T02:38:13.342Z,51.97
2018-09-04T02:40:18.035Z,56.27
2018-09-04T02:42:22.701Z,51.70
2018-09-04T02:44:27.542Z,49.80
2018-09-04T02:46:32.407Z,51.33
2018-09-04T02:48:37.116Z,53.93
2018-09-04T02:50:41.835Z,42.77
2018-09-04T02:52:46.617Z,50.93
2018-09-04T02:54:51.336Z,45.40
2018-09-04T02:56:56.023Z,45.47
2018-09-04T02:59:00.777Z,48.37
2018-09-04T03:01:05.612Z,51.13
2018-09-04T03:03:10.242Z,51.00
2018-09-04T03:05:17.499Z,47.80
2018-09-04T03:07:22.147Z,63.60
2018-09-04T03:09:26.822Z,60.43
2018-09-04T03:11:31.506Z,52.20
2018-09-04T03:13:36.257Z,53.37
2018-09-04T03:15:40.854Z,52.20
2018-09-04T03:17:45.578Z,52.63
2018-09-04T03:19:50.282Z,56.10
2018-09-04T03:21:54.940Z,49.37
2018-09-04T03:23:59.637Z,44.37
2018-09-04T03:26:04.376Z,47.53
2018-09-04T03:28:09.033Z,54.27
2018-09-04T03:30:13.762Z,54.50
2018-09-04T03:32:19.264Z,47.20
2018-09-04T03:34:23.919Z,47.97
2018-09-04T03:36:28.675Z,45.27
2018-09-04T03:38:33.326Z,52.70
2018-09-04T03:40:38.006Z,49.40
2018-09-04T03:42:42.976Z,45.63
2018-09-04T03:44:47.669Z,50.10
2018-09-04T03:46:52.364Z,50.13
2018-09-04T03:48:57.424Z,50.20
2018-09-04T03:51:02.168Z,54.73
2018-09-04T03:53:07.011Z,46.33
2018-09-04T03:55:11.769Z,53.33
2018-09-04T03:57:16.442Z,53.90
2018-09-04T03:59:21.437Z,51.63
2018-09-04T04:01:26.166Z,46.53
2018-09-04T04:03:30.832Z,49.23
2018-09-04T04:05:35.623Z,51.83
2018-09-04T04:07:40.555Z,57.27
2018-09-04T04:09:45.773Z,45.70
2018-09-04T04:11:50.556Z,45.17
2018-09-04T04:13:56.065Z,45.97
2018-09-04T04:16:00.801Z,50.93
2018-09-04T04:18:06.878Z,54.93
2018-09-04T04:20:12.405Z,54.67
2018-09-04T04:22:17.110Z,49.80
2018-09-04T04:24:21.827Z,48.63
2018-09-04T04:26:26.511Z,53.00
2018-09-04T04:28:31.171Z,53.97
2018-09-04T04:30:35.783Z,50.10
2018-09-04T04:32:41.459Z,48.87
2018-09-04T04:34:46.158Z,51.03
2018-09-04T04:36:50.822Z,60.63
2018-09-04T04:38:55.602Z,54.13
2018-09-04T04:41:00.516Z,61.80
2018-09-04T04:43:05.459Z,63.57
2018-09-04T04:45:10.337Z,60.70
2018-09-04T04:47:15.192Z,55.40
2018-09-04T04:49:20.166Z,51.90
2018-09-04T04:51:25.842Z,52.87
2018-09-04T04:53:30.531Z,52.40
2018-09-04T04:55:35.413Z,59.70
2018-09-04T04:57:40.333Z,62.33
2018-09-04T04:59:45.130Z,60.33
2018-09-04T05:01:50.325Z,70.57
2018-09-04T05:03:55.494Z,58.90
2018-09-04T05:06:00.557Z,58.53
2018-09-04T05:08:06.111Z,58.10
2018-09-04T05:10:10.970Z,65.33
2018-09-04T05:12:15.687Z,53.13
2018-09-04T05:14:20.603Z,50.53
2018-09-04T05:16:25.653Z,52.13
2018-09-04T05:18:31.926Z,58.77
2018-09-04T05:20:36.797Z,66.73
2018-09-04T05:22:41.729Z,69.50
2018-09-04T05:24:47.832Z,53.40
2018-09-04T05:26:52.625Z,59.47
2018-09-04T05:28:57.940Z,56.27
2018-09-04T05:31:02.754Z,69.67
2018-09-04T05:33:12.631Z,62.97
2018-09-04T05:35:17.564Z,62.47
2018-09-04T05:37:22.273Z,59.20
2018-09-04T05:39:26.990Z,58.47
2018-09-04T05:41:31.828Z,54.67
2018-09-04T05:43:48.665Z,58.17
2018-09-04T05:45:53.560Z,60.73
2018-09-04T05:48:00.344Z,67.40
2018-09-04T05:50:07.040Z,57.00
2018-09-04T05:52:11.775Z,59.60
2018-09-04T05:54:16.619Z,65.77
2018-09-04T05:56:21.692Z,52.27
2018-09-04T05:58:26.617Z,60.00
2018-09-04T06:00:37.306Z,58.17
2018-09-04T06:02:42.295Z,64.83
2018-09-04T06:04:47.107Z,71.53
2018-09-04T06:06:52.078Z,64.93
2018-09-04T06:08:57.442Z,83.70
2018-09-04T06:11:02.313Z,75.20
2018-09-04T06:13:07.418Z,59.33
2018-09-04T06:15:12.334Z,58.80
2018-09-04T06:17:17.504Z,63.80
2018-09-04T06:19:23.553Z,61.63
2018-09-04T06:21:28.474Z,66.67
2018-09-04T06:23:33.955Z,65.47
2018-09-04T06:25:38.893Z,64.33
2018-09-04T06:27:43.824Z,86.40
2018-09-04T06:29:48.637Z,62.50
2018-09-04T06:31:53.523Z,64.87
2018-09-04T06:33:58.684Z,71.57
2018-09-04T06:36:03.483Z,65.70
2018-09-04T06:38:08.848Z,57.20
2018-09-04T06:40:13.694Z,65.90
2018-09-04T06:42:18.515Z,60.80
2018-09-04T06:44:23.408Z,56.50
2018-09-04T06:46:28.235Z,59.47
2018-09-04T06:48:33.087Z,62.47
2018-09-04T06:50:37.961Z,68.37
2018-09-04T06:52:42.768Z,58.03
2018-09-04T06:54:47.959Z,59.60
2018-09-04T06:56:52.757Z,69.43
2018-09-04T06:58:57.550Z,53.40
2018-09-04T07:01:02.363Z,51.10
2018-09-04T07:03:07.317Z,71.40
2018-09-04T07:05:12.783Z,58.87
2018-09-04T07:07:17.512Z,59.40
2018-09-04T07:09:22.367Z,66.10
2018-09-04T07:11:27.131Z,57.43
2018-09-04T07:13:31.880Z,49.60
2018-09-04T07:15:36.594Z,55.80
2018-09-04T07:17:41.370Z,56.30
2018-09-04T07:19:46.272Z,55.83
2018-09-04T07:21:50.994Z,55.23
2018-09-04T07:23:55.717Z,49.30
2018-09-04T07:26:00.422Z,61.37
2018-09-04T07:28:05.288Z,57.03
2018-09-04T07:30:10.107Z,59.40
2018-09-04T07:32:14.844Z,57.50
2018-09-04T07:34:19.587Z,58.63
2018-09-04T07:36:24.421Z,72.87
2018-09-04T07:38:29.312Z,68.57
2018-09-04T07:40:34.196Z,66.73
2018-09-04T07:42:39.687Z,67.10
2018-09-04T07:44:44.446Z,66.43
2018-09-04T07:46:49.242Z,64.20
2018-09-04T07:48:54.064Z,67.30
2018-09-04T07:50:58.812Z,55.63
2018-09-04T07:53:03.577Z,62.97
2018-09-04T07:55:08.649Z,63.90
2018-09-04T07:57:13.510Z,49.60
2018-09-04T07:59:18.273Z,55.37
2018-09-04T08:01:23.045Z,66.33
2018-09-04T08:03:28.368Z,61.77
2018-09-04T08:05:33.267Z,59.07
2018-09-04T08:07:38.014Z,63.93
2018-09-04T08:09:42.818Z,61.90
2018-09-04T08:11:47.589Z,58.77
2018-09-04T08:13:52.553Z,57.37
2018-09-04T08:15:57.275Z,57.73
2018-09-04T08:18:02.251Z,52.50
2018-09-04T08:20:07.168Z,56.87
2018-09-04T08:22:11.900Z,67.10
2018-09-04T08:24:16.624Z,60.60
2018-09-04T08:26:21.370Z,52.20
2018-09-04T08:28:26.356Z,56.60
2018-09-04T08:30:31.066Z,54.53
2018-09-04T08:32:35.964Z,55.37
2018-09-04T08:34:40.773Z,58.57
2018-09-04T08:36:45.597Z,56.80
2018-09-04T08:38:51.636Z,61.70
2018-09-04T08:40:56.422Z,54.47
2018-09-04T08:43:01.591Z,59.33
2018-09-04T08:45:06.421Z,59.00
2018-09-04T08:47:11.234Z,58.30
2018-09-04T08:49:16.039Z,56.57
2018-09-04T08:51:20.775Z,63.63
2018-09-04T08:53:25.630Z,59.57
2018-09-04T08:55:30.376Z,58.87
2018-09-04T08:57:35.238Z,63.00
2018-09-04T08:59:40.322Z,64.90
2018-09-04T09:01:45.596Z,63.93
2018-09-04T09:03:50.570Z,61.00
2018-09-04T09:05:55.341Z,55.70
2018-09-04T09:10:47.017Z,54.07
2018-09-04T09:12:53.695Z,53.37
2018-09-04T09:14:59.523Z,62.30
2018-09-04T09:19:21.321Z,56.70
2018-09-04T09:21:26.188Z,52.53
2018-09-04T09:23:30.913Z,55.90
2018-09-04T09:25:36.401Z,69.33
2018-09-04T09:27:41.866Z,53.67
2018-09-04T09:29:46.582Z,60.90
2018-09-04T09:31:51.462Z,59.53
2018-09-04T09:33:56.295Z,59.27
2018-09-04T09:36:01.718Z,56.30
2018-09-04T09:38:06.523Z,58.47
2018-09-04T09:40:11.830Z,60.60
2018-09-04T09:42:16.909Z,62.50
2018-09-04T09:44:21.991Z,62.43
2018-09-04T09:46:26.888Z,57.30
2018-09-04T09:48:36.864Z,50.60
2018-09-04T09:50:42.734Z,47.30
2018-09-04T09:52:47.817Z,59.87
2018-09-04T09:54:53.070Z,60.97
2018-09-04T09:56:57.942Z,55.30
2018-09-04T09:59:03.774Z,62.63
2018-09-04T10:01:14.071Z,70.33
2018-09-04T10:03:23.877Z,54.87
2018-09-04T10:05:28.923Z,62.77
2018-09-04T10:07:33.968Z,56.90
2018-09-04T10:09:38.802Z,67.07
2018-09-04T10:11:43.990Z,56.67
2018-09-04T10:13:49.443Z,68.60
2018-09-04T10:15:54.233Z,65.17
2018-09-04T10:18:00.046Z,59.83
2018-09-04T10:20:05.065Z,57.53
2018-09-04T10:22:10.141Z,58.70
2018-09-04T10:24:15.284Z,56.77
2018-09-04T10:26:20.499Z,57.47
2018-09-04T10:28:25.637Z,50.93
2018-09-04T10:30:30.819Z,59.43
2018-09-04T10:32:36.107Z,59.73
2018-09-04T10:34:41.223Z,51.83
2018-09-04T10:36:47.058Z,52.80
2018-09-04T10:38:55.872Z,50.90
2018-09-04T10:41:02.658Z,51.77
2018-09-04T10:43:07.725Z,54.47
2018-09-04T10:45:17.485Z,49.87
2018-09-04T10:47:22.998Z,47.93
2018-09-04T10:49:27.746Z,46.20
2018-09-04T10:51:32.802Z,54.23
2018-09-04T10:53:38.576Z,54.47
2018-09-04T10:55:43.479Z,58.93
2018-09-04T10:57:49.026Z,52.97
2018-09-04T10:59:54.025Z,53.30
2018-09-04T11:01:59.124Z,49.73
2018-09-04T11:04:04.434Z,53.80
2018-09-04T11:06:09.346Z,56.60
2018-09-04T11:08:14.471Z,49.30
2018-09-04T11:10:19.620Z,48.90
2018-09-04T11:12:24.692Z,45.00
2018-09-04T11:14:29.804Z,42.23
2018-09-04T11:16:35.033Z,53.70
2018-09-04T11:18:40.167Z,57.33
2018-09-04T11:20:45.253Z,49.60
2018-09-04T11:22:50.316Z,48.73
2018-09-04T11:24:55.544Z,50.53
2018-09-04T11:27:00.612Z,52.40
2018-09-04T11:29:09.184Z,56.67
2018-09-04T11:31:14.289Z,50.53
2018-09-04T11:33:19.203Z,56.97
2018-09-04T11:35:24.222Z,57.70
2018-09-04T11:37:29.066Z,59.03
2018-09-04T11:39:33.884Z,70.77
2018-09-04T11:41:39.282Z,76.67
2018-09-04T11:43:44.014Z,63.80
2018-09-04T11:45:48.829Z,66.10
2018-09-04T11:47:53.768Z,60.30
2018-09-04T11:49:58.537Z,63.10
2018-09-04T11:52:03.285Z,62.93
2018-09-04T11:54:09.086Z,55.40
2018-09-04T11:56:17.839Z,58.90
2018-09-04T11:58:22.532Z,51.53
2018-09-04T12:00:36.527Z,62.83
2018-09-04T12:02:41.412Z,64.17
2018-09-04T12:04:46.297Z,60.07
2018-09-04T12:06:51.136Z,59.03
2018-09-04T12:08:55.940Z,63.37
2018-09-04T12:11:00.752Z,59.33
2018-09-04T12:13:05.913Z,64.13
2018-09-04T12:15:10.742Z,54.37
2018-09-04T12:17:16.250Z,57.17
2018-09-04T12:19:21.486Z,59.47
2018-09-04T12:21:26.628Z,61.10
2018-09-04T12:23:31.885Z,48.23
2018-09-04T12:25:37.530Z,51.70
2018-09-04T12:27:42.693Z,53.27
2018-09-04T12:29:47.746Z,55.87
2018-09-04T12:31:54.267Z,48.10
2018-09-04T12:33:59.676Z,54.73
2018-09-04T12:36:05.045Z,50.10
2018-09-04T12:38:12.373Z,59.10
2018-09-04T12:40:17.518Z,44.07
2018-09-04T12:42:23.645Z,52.10
2018-09-04T12:44:28.541Z,53.23
2018-09-04T12:46:33.862Z,46.73
2018-09-04T12:48:39.479Z,46.67
2018-09-04T12:50:44.910Z,46.27
2018-09-04T12:52:50.811Z,54.00
2018-09-04T12:54:55.786Z,48.23
2018-09-04T12:57:00.974Z,40.67
2018-09-04T12:59:07.228Z,43.70
2018-09-04T13:01:12.826Z,39.57
2018-09-04T13:03:25.633Z,37.70
2018-09-04T13:05:30.729Z,40.47
2018-09-04T13:07:35.820Z,41.77
2018-09-04T13:09:40.784Z,38.00
2018-09-04T13:11:45.858Z,35.43
2018-09-04T13:13:50.915Z,30.63
2018-09-04T13:15:57.865Z,30.70
2018-09-04T13:18:02.874Z,27.93
2018-09-04T13:20:08.111Z,31.57
2018-09-04T13:22:13.072Z,28.73
2018-09-04T13:24:18.144Z,27.33
2018-09-04T13:26:23.121Z,38.90
2018-09-04T13:28:28.623Z,43.40
2018-09-04T13:30:33.663Z,38.67
2018-09-04T13:32:38.914Z,42.60
2018-09-04T13:34:43.825Z,46.53
2018-09-04T13:36:48.987Z,50.40
2018-09-04T13:38:54.828Z,48.03
2018-09-04T13:41:05.393Z,48.23
2018-09-04T13:43:10.601Z,48.67
2018-09-04T13:45:16.512Z,43.70
2018-09-04T13:47:24.163Z,46.97
2018-09-04T13:49:29.538Z,47.23
2018-09-04T13:51:34.714Z,40.90
2018-09-04T13:53:39.873Z,48.37
2018-09-04T13:55:45.064Z,53.90
2018-09-04T13:57:50.718Z,40.47
2018-09-04T13:59:56.131Z,47.30
2018-09-04T14:02:01.352Z,40.57
2018-09-04T14:04:06.237Z,53.43
2018-09-04T14:06:11.176Z,41.83
2018-09-04T14:08:16.201Z,58.33
2018-09-04T14:10:21.304Z,53.57
2018-09-04T14:12:27.008Z,40.83
2018-09-04T14:14:32.029Z,44.07
2018-09-04T14:16:43.149Z,48.63
2018-09-04T14:18:42.705Z,45.13
2018-09-04T14:20:47.731Z,49.40
2018-09-04T14:22:52.737Z,52.03
2018-09-04T14:24:57.933Z,47.23
2018-09-04T14:27:02.987Z,45.90
2018-09-04T14:29:08.471Z,46.43
2018-09-04T14:31:13.668Z,56.40
2018-09-04T14:33:18.842Z,50.20
2018-09-04T14:35:23.725Z,47.73
2018-09-04T14:37:28.869Z,41.77
2018-09-04T14:39:33.753Z,54.17
2018-09-04T14:41:38.746Z,45.80
2018-09-04T14:43:43.635Z,43.60
2018-09-04T14:45:49.710Z,38.00
2018-09-04T14:47:55.475Z,33.33
2018-09-04T14:50:00.558Z,33.23
2018-09-04T14:52:05.863Z,33.67
2018-09-04T14:54:11.934Z,33.00
2018-09-04T14:56:17.575Z,32.53
2018-09-04T14:58:22.610Z,38.47
2018-09-04T15:00:27.821Z,41.50
2018-09-04T15:02:32.911Z,41.60
2018-09-04T15:04:38.294Z,35.60
2018-09-04T15:06:43.347Z,40.50
2018-09-04T15:08:48.429Z,37.10
2018-09-04T15:10:53.692Z,49.00
2018-09-04T15:12:58.605Z,29.60
2018-09-04T15:15:03.976Z,21.87
2018-09-04T15:17:08.885Z,18.17
2018-09-04T15:19:13.858Z,27.70
2018-09-04T15:21:18.734Z,28.63
2018-09-04T15:23:23.763Z,37.17
2018-09-04T15:25:28.765Z,34.50
2018-09-04T15:27:34.577Z,31.67
2018-09-04T15:29:39.450Z,30.67
2018-09-04T15:31:44.802Z,31.40
2018-09-04T15:33:49.845Z,32.10
2018-09-04T15:35:55.192Z,26.70
2018-09-04T15:38:00.143Z,27.03
2018-09-04T15:40:05.254Z,25.20
2018-09-04T15:42:10.367Z,24.67
2018-09-04T15:44:16.378Z,27.00
2018-09-04T15:46:22.906Z,35.70
2018-09-04T15:48:27.894Z,24.80
2018-09-04T15:50:32.734Z,31.80
2018-09-04T15:52:39.022Z,36.20
2018-09-04T15:54:43.910Z,34.37
2018-09-04T15:56:48.854Z,41.53
2018-09-04T15:58:53.703Z,43.10
2018-09-04T16:00:58.900Z,38.90
2018-09-04T16:03:04.663Z,30.57
2018-09-04T16:05:09.715Z,24.57
2018-09-04T16:07:14.720Z,17.30
2018-09-04T16:09:20.107Z,22.37
2018-09-04T16:11:25.265Z,18.13
2018-09-04T16:13:30.848Z,20.10
2018-09-04T16:15:35.804Z,15.83
2018-09-04T16:17:41.256Z,17.80
2018-09-04T16:19:47.816Z,15.83
2018-09-04T16:21:53.092Z,19.70
2018-09-04T16:23:58.823Z,17.10
2018-09-04T16:26:03.953Z,21.20
2018-09-04T16:28:09.225Z,17.57
2018-09-04T16:30:14.586Z,18.03
2018-09-04T16:32:20.088Z,18.87
2018-09-04T16:34:25.353Z,16.90
2018-09-04T16:36:30.771Z,18.27
2018-09-04T16:38:36.234Z,20.37
2018-09-04T16:40:41.382Z,15.60
2018-09-04T16:42:46.468Z,22.20
2018-09-04T16:44:52.179Z,23.40
2018-09-04T16:46:57.956Z,18.37
2018-09-04T16:49:03.322Z,25.33
2018-09-04T16:51:10.256Z,20.20
2018-09-04T16:53:15.308Z,20.70
2018-09-04T16:55:20.546Z,21.33
2018-09-04T16:57:26.183Z,19.77
2018-09-04T16:59:32.093Z,18.57
2018-09-04T17:01:37.543Z,18.43
2018-09-04T17:03:43.174Z,20.27
2018-09-04T17:05:48.283Z,19.90
2018-09-04T17:07:53.850Z,18.13
2018-09-04T17:09:59.096Z,27.57
2018-09-04T17:12:04.517Z,21.03
2018-09-04T17:14:10.405Z,18.10
2018-09-04T17:16:15.868Z,22.50
2018-09-04T17:18:22.120Z,21.00
2018-09-04T17:20:27.281Z,20.17
2018-09-04T17:22:33.944Z,22.00
2018-09-04T17:24:38.972Z,22.07
2018-09-04T17:26:47.785Z,22.40
2018-09-04T17:28:52.819Z,24.40
2018-09-04T17:30:57.757Z,22.20
2018-09-04T17:33:04.140Z,20.17
2018-09-04T17:35:09.056Z,23.00
2018-09-04T17:37:14.285Z,18.60
2018-09-04T17:39:19.418Z,18.67
2018-09-04T17:41:24.639Z,17.63
2018-09-04T17:43:30.968Z,17.13
2018-09-04T17:45:36.377Z,19.40
2018-09-04T17:47:41.837Z,19.23
2018-09-04T17:49:47.061Z,18.30
2018-09-04T17:51:52.553Z,18.20
2018-09-04T17:53:57.647Z,18.77
2018-09-04T17:56:03.291Z,17.27
2018-09-04T17:58:08.312Z,16.10
2018-09-04T18:00:14.368Z,17.73
2018-09-04T18:02:20.356Z,17.20
2018-09-04T18:04:25.470Z,17.60
2018-09-04T18:06:30.827Z,22.73
2018-09-04T18:08:35.949Z,20.00
2018-09-04T18:10:41.272Z,18.30
2018-09-04T18:12:47.421Z,15.73
2018-09-04T18:14:52.586Z,17.93
2018-09-04T18:16:58.017Z,18.90
2018-09-04T18:19:03.489Z,18.07
2018-09-04T18:21:08.714Z,27.83
2018-09-04T18:23:15.160Z,21.13
2018-09-04T18:25:20.676Z,16.20
2018-09-04T18:27:26.313Z,21.33
2018-09-04T18:29:34.896Z,16.17
2018-09-04T18:31:41.637Z,22.07
2018-09-04T18:33:47.718Z,20.17
2018-09-04T18:35:52.789Z,18.33
2018-09-04T18:37:57.854Z,20.90
2018-09-04T18:40:04.195Z,22.70
2018-09-04T18:44:56.233Z,20.70
2018-09-04T18:47:01.483Z,24.03
2018-09-04T18:49:07.780Z,17.40
2018-09-04T18:51:20.402Z,20.93
2018-09-04T18:53:31.814Z,18.33
2018-09-04T18:55:37.399Z,20.00
2018-09-04T18:57:43.516Z,18.20
2018-09-04T18:59:50.398Z,22.63
2018-09-04T19:01:57.362Z,19.37
2018-09-04T19:04:06.545Z,15.00
2018-09-04T19:06:18.103Z,23.70
2018-09-04T19:08:28.140Z,19.13
2018-09-04T19:10:40.622Z,23.07
2018-09-04T19:12:51.437Z,24.80
2018-09-04T19:14:58.802Z,24.60
2018-09-04T19:17:10.476Z,21.43
2018-09-04T19:19:22.140Z,17.47
2018-09-04T19:21:34.282Z,21.50
2018-09-04T19:23:45.919Z,18.67
2018-09-04T19:25:57.205Z,24.27
2018-09-04T19:28:09.619Z,25.37
2018-09-04T19:30:19.668Z,21.57
2018-09-04T19:32:31.141Z,24.60
2018-09-04T19:34:40.993Z,23.87
2018-09-04T19:36:49.715Z,24.00
2018-09-04T19:38:59.515Z,23.70
2018-09-04T19:41:09.454Z,23.37
2018-09-04T19:43:21.017Z,24.10
2018-09-04T19:45:31.529Z,24.47
2018-09-04T19:47:44.218Z,25.23
2018-09-04T19:49:55.323Z,27.27
2018-09-04T19:52:05.268Z,26.07
2018-09-04T19:54:15.004Z,24.10
2018-09-04T19:56:23.917Z,22.53
2018-09-04T19:58:31.954Z,21.90
2018-09-04T20:00:41.284Z,25.07
2018-09-04T20:02:49.888Z,36.27
2018-09-04T20:04:59.434Z,26.50
2018-09-04T20:07:14.639Z,23.70
2018-09-04T20:09:23.750Z,32.87
2018-09-04T20:11:29.803Z,30.10
2018-09-04T20:13:42.457Z,26.63
2018-09-04T20:15:48.406Z,24.47
2018-09-04T20:17:56.456Z,26.67
2018-09-04T20:20:03.673Z,23.63
2018-09-04T20:22:13.010Z,24.77
2018-09-04T20:24:21.645Z,24.70
2018-09-04T20:26:27.370Z,24.37
2018-09-04T20:28:34.068Z,22.53
2018-09-04T20:30:41.969Z,23.67
2018-09-04T20:32:49.957Z,29.90
2018-09-04T20:41:18.085Z,24.50
2018-09-04T20:43:23.850Z,25.30
2018-09-04T20:45:29.805Z,26.83
2018-09-04T20:47:37.281Z,30.00
2018-09-04T20:49:43.471Z,25.70
2018-09-04T20:51:50.148Z,29.40
2018-09-04T20:53:56.074Z,27.20
2018-09-04T20:56:02.350Z,27.93
2018-09-04T20:58:23.994Z,28.10
2018-09-04T21:00:45.931Z,30.87
2018-09-04T21:03:07.998Z,31.13
2018-09-04T21:05:29.729Z,33.73
2018-09-04T21:08:56.893Z,29.20
2018-09-04T21:11:02.717Z,29.37
2018-09-04T21:13:08.639Z,30.30
2018-09-04T21:15:14.776Z,28.50
2018-09-04T21:17:21.174Z,40.77
2018-09-04T21:19:27.118Z,35.10
2018-09-04T21:21:32.959Z,35.70
2018-09-04T21:23:38.287Z,32.30
2018-09-04T21:25:43.577Z,33.80
2018-09-04T21:27:49.244Z,33.77
2018-09-04T21:29:54.694Z,35.77
2018-09-04T21:32:01.945Z,35.30
2018-09-04T21:34:09.049Z,29.50
2018-09-04T21:36:14.699Z,38.03
2018-09-04T21:38:20.340Z,34.20
2018-09-04T21:40:25.489Z,35.97
2018-09-04T21:42:33.228Z,37.40
2018-09-04T21:44:39.147Z,36.90
2018-09-04T21:46:44.717Z,38.17
2018-09-04T21:48:49.958Z,39.93
2018-09-04T21:50:56.896Z,31.97
2018-09-04T21:53:02.223Z,40.57
2018-09-04T21:55:08.823Z,35.27
2018-09-04T21:57:14.095Z,35.50
2018-09-04T21:59:20.301Z,36.20
2018-09-04T22:01:26.115Z,37.40
2018-09-04T22:03:32.028Z,35.90
2018-09-04T22:05:37.632Z,38.80
2018-09-04T22:07:42.652Z,35.67
2018-09-04T22:09:47.889Z,37.03
2018-09-04T22:11:52.918Z,36.83
2018-09-04T22:13:58.064Z,38.03
2018-09-04T22:16:04.290Z,46.97
2018-09-04T22:18:09.640Z,34.50
2018-09-04T22:20:19.948Z,38.50
2018-09-04T22:22:25.012Z,37.50
2018-09-04T22:24:36.499Z,43.50
2018-09-04T22:26:41.647Z,35.73
2018-09-04T22:28:46.680Z,46.67
2018-09-04T22:30:51.877Z,37.57
2018-09-04T22:32:57.562Z,36.53
2018-09-04T22:35:02.667Z,38.10
2018-09-04T22:37:07.876Z,40.17
2018-09-04T22:39:12.903Z,40.30
2018-09-04T22:41:18.152Z,42.83
2018-09-04T22:43:23.305Z,36.70
2018-09-04T22:45:28.371Z,42.90
2018-09-04T22:47:33.774Z,34.87
2018-09-04T22:49:43.365Z,42.47
2018-09-04T22:51:48.356Z,38.23
2018-09-04T22:53:53.332Z,37.10
2018-09-04T22:55:58.277Z,36.20
2018-09-04T22:58:08.645Z,45.57
2018-09-04T23:00:14.821Z,36.63
2018-09-04T23:02:19.823Z,38.30
2018-09-04T23:04:24.627Z,41.37
2018-09-04T23:06:29.629Z,50.83
2018-09-04T23:08:34.514Z,41.20
2018-09-04T23:10:39.383Z,44.10
2018-09-04T23:12:50.522Z,43.60
2018-09-04T23:14:55.879Z,43.87
2018-09-04T23:17:00.855Z,40.23
2018-09-04T23:19:05.887Z,37.43
2018-09-04T23:21:11.091Z,39.23
2018-09-04T23:23:16.151Z,39.60
2018-09-04T23:25:21.186Z,39.90
2018-09-04T23:27:26.267Z,39.60
2018-09-04T23:29:31.313Z,35.83
2018-09-04T23:31:36.475Z,41.57
2018-09-04T23:33:41.469Z,34.87
2018-09-04T23:35:46.323Z,39.47
2018-09-04T23:37:51.304Z,33.63
2018-09-04T23:39:56.228Z,43.37
2018-09-04T23:42:01.247Z,38.43
2018-09-04T23:44:06.340Z,32.87
2018-09-04T23:46:11.312Z,31.87
2018-09-04T23:48:16.195Z,33.60
2018-09-04T23:50:21.121Z,35.50
2018-09-04T23:52:26.111Z,36.37
2018-09-04T23:54:31.176Z,40.80
2018-09-04T23:56:36.254Z,30.97
2018-09-04T23:58:41.316Z,39.50
